sensor_id;sensor_type;location;lat;lon;timestamp;P1;durP1;ratioP1;P2;durP2;ratioP2
10761;SDS011;5433;50.862;4.320;2022-09-09T00:01:07;5.80;;;1.85;;
10761;SDS011;5433;50.862;4.320;2022-09-09T00:03:32;2.97;;;1.70;;
10761;SDS011;5433;50.862;4.320;2022-09-09T00:06:09;3.95;;;1.90;;
10761;SDS011;5433;50.862;4.320;2022-09-09T00:12:06;4.43;;;1.77;;
10761;SDS011;5433;50.862;4.320;2022-09-09T00:14:09;4.38;;;1.70;;
10761;SDS011;5433;50.862;4.320;2022-09-09T00:16:38;4.25;;;1.80;;
10761;SDS011;5433;50.862;4.320;2022-09-09T00:21:53;5.53;;;1.70;;
10761;SDS011;5433;50.862;4.320;2022-09-09T00:24:39;4.45;;;2.00;;
10761;SDS011;5433;50.862;4.320;2022-09-09T00:27:08;5.47;;;1.85;;
10761;SDS011;5433;50.862;4.320;2022-09-09T00:32:14;3.50;;;1.88;;
10761;SDS011;5433;50.862;4.320;2022-09-09T00:34:47;4.15;;;1.70;;
10761;SDS011;5433;50.862;4.320;2022-09-09T00:37:13;5.15;;;1.70;;
10761;SDS011;5433;50.862;4.320;2022-09-09T00:39:44;5.85;;;2.15;;
10761;SDS011;5433;50.862;4.320;2022-09-09T00:42:20;5.65;;;2.00;;
10761;SDS011;5433;50.862;4.320;2022-09-09T00:44:51;5.05;;;1.98;;
10761;SDS011;5433;50.862;4.320;2022-09-09T00:47:25;3.45;;;1.88;;
10761;SDS011;5433;50.862;4.320;2022-09-09T00:52:32;3.65;;;1.70;;
10761;SDS011;5433;50.862;4.320;2022-09-09T00:55:21;3.60;;;1.60;;
10761;SDS011;5433;50.862;4.320;2022-09-09T00:57:52;4.65;;;2.03;;
10761;SDS011;5433;50.862;4.320;2022-09-09T01:00:35;5.32;;;1.75;;
10761;SDS011;5433;50.862;4.320;2022-09-09T01:03:10;5.18;;;1.75;;
10761;SDS011;5433;50.862;4.320;2022-09-09T01:08:11;4.50;;;1.70;;
10761;SDS011;5433;50.862;4.320;2022-09-09T01:10:43;4.60;;;1.52;;
10761;SDS011;5433;50.862;4.320;2022-09-09T01:13:13;5.00;;;1.80;;
10761;SDS011;5433;50.862;4.320;2022-09-09T01:15:40;3.35;;;1.50;;
10761;SDS011;5433;50.862;4.320;2022-09-09T01:18:08;2.08;;;1.38;;
10761;SDS011;5433;50.862;4.320;2022-09-09T01:28:10;4.40;;;1.60;;
10761;SDS011;5433;50.862;4.320;2022-09-09T01:30:38;5.03;;;1.70;;
10761;SDS011;5433;50.862;4.320;2022-09-09T01:33:04;3.50;;;1.50;;
10761;SDS011;5433;50.862;4.320;2022-09-09T01:37:59;4.95;;;1.50;;
10761;SDS011;5433;50.862;4.320;2022-09-09T01:40:25;5.35;;;1.70;;
10761;SDS011;5433;50.862;4.320;2022-09-09T01:42:52;5.57;;;1.70;;
10761;SDS011;5433;50.862;4.320;2022-09-09T01:45:18;4.32;;;1.80;;
10761;SDS011;5433;50.862;4.320;2022-09-09T01:47:44;4.70;;;1.73;;
10761;SDS011;5433;50.862;4.320;2022-09-09T01:50:11;5.43;;;1.92;;
10761;SDS011;5433;50.862;4.320;2022-09-09T01:52:38;4.20;;;1.80;;
10761;SDS011;5433;50.862;4.320;2022-09-09T01:55:04;5.30;;;1.65;;
10761;SDS011;5433;50.862;4.320;2022-09-09T01:57:33;3.45;;;1.80;;
10761;SDS011;5433;50.862;4.320;2022-09-09T02:00:08;6.95;;;2.10;;
10761;SDS011;5433;50.862;4.320;2022-09-09T02:05:21;3.80;;;1.70;;
10761;SDS011;5433;50.862;4.320;2022-09-09T02:17:09;6.55;;;1.88;;
10761;SDS011;5433;50.862;4.320;2022-09-09T02:19:41;8.55;;;2.22;;
10761;SDS011;5433;50.862;4.320;2022-09-09T02:22:11;7.43;;;2.10;;
10761;SDS011;5433;50.862;4.320;2022-09-09T02:24:39;9.05;;;2.30;;
10761;SDS011;5433;50.862;4.320;2022-09-09T02:27:06;7.05;;;2.05;;
10761;SDS011;5433;50.862;4.320;2022-09-09T02:29:34;6.82;;;2.13;;
10761;SDS011;5433;50.862;4.320;2022-09-09T02:32:01;7.28;;;2.00;;
10761;SDS011;5433;50.862;4.320;2022-09-09T02:34:30;7.78;;;2.40;;
10761;SDS011;5433;50.862;4.320;2022-09-09T02:36:57;9.05;;;2.55;;
10761;SDS011;5433;50.862;4.320;2022-09-09T02:39:24;5.88;;;2.10;;
10761;SDS011;5433;50.862;4.320;2022-09-09T02:41:50;8.05;;;2.45;;
10761;SDS011;5433;50.862;4.320;2022-09-09T02:44:17;7.85;;;2.53;;
10761;SDS011;5433;50.862;4.320;2022-09-09T02:49:18;9.25;;;2.25;;
10761;SDS011;5433;50.862;4.320;2022-09-09T02:51:52;6.70;;;2.60;;
10761;SDS011;5433;50.862;4.320;2022-09-09T02:54:26;9.02;;;2.35;;
10761;SDS011;5433;50.862;4.320;2022-09-09T02:56:55;6.05;;;2.10;;
10761;SDS011;5433;50.862;4.320;2022-09-09T02:59:22;8.60;;;2.28;;
10761;SDS011;5433;50.862;4.320;2022-09-09T03:01:50;4.82;;;2.00;;
10761;SDS011;5433;50.862;4.320;2022-09-09T03:04:18;10.70;;;2.33;;
10761;SDS011;5433;50.862;4.320;2022-09-09T03:06:44;8.15;;;2.30;;
10761;SDS011;5433;50.862;4.320;2022-09-09T03:09:10;8.18;;;2.10;;
10761;SDS011;5433;50.862;4.320;2022-09-09T03:11:36;9.23;;;2.45;;
10761;SDS011;5433;50.862;4.320;2022-09-09T03:14:03;6.93;;;2.38;;
10761;SDS011;5433;50.862;4.320;2022-09-09T03:16:29;7.13;;;2.42;;
10761;SDS011;5433;50.862;4.320;2022-09-09T03:18:55;6.15;;;2.15;;
10761;SDS011;5433;50.862;4.320;2022-09-09T03:21:21;8.95;;;2.42;;
10761;SDS011;5433;50.862;4.320;2022-09-09T03:23:47;8.27;;;2.30;;
10761;SDS011;5433;50.862;4.320;2022-09-09T03:26:13;7.97;;;2.30;;
10761;SDS011;5433;50.862;4.320;2022-09-09T03:28:40;6.75;;;2.20;;
10761;SDS011;5433;50.862;4.320;2022-09-09T03:31:06;9.32;;;2.20;;
10761;SDS011;5433;50.862;4.320;2022-09-09T03:33:35;8.10;;;2.10;;
10761;SDS011;5433;50.862;4.320;2022-09-09T03:36:01;9.88;;;2.25;;
10761;SDS011;5433;50.862;4.320;2022-09-09T03:38:27;7.22;;;2.45;;
10761;SDS011;5433;50.862;4.320;2022-09-09T03:40:55;9.57;;;2.38;;
10761;SDS011;5433;50.862;4.320;2022-09-09T03:43:22;6.85;;;2.28;;
10761;SDS011;5433;50.862;4.320;2022-09-09T03:45:51;9.32;;;2.40;;
10761;SDS011;5433;50.862;4.320;2022-09-09T03:48:18;6.93;;;2.10;;
10761;SDS011;5433;50.862;4.320;2022-09-09T03:50:48;8.80;;;2.10;;
10761;SDS011;5433;50.862;4.320;2022-09-09T03:53:14;6.72;;;2.33;;
10761;SDS011;5433;50.862;4.320;2022-09-09T03:55:44;10.27;;;2.42;;
10761;SDS011;5433;50.862;4.320;2022-09-09T03:58:10;7.03;;;2.28;;
10761;SDS011;5433;50.862;4.320;2022-09-09T04:00:36;8.65;;;2.38;;
10761;SDS011;5433;50.862;4.320;2022-09-09T04:03:09;6.72;;;2.25;;
10761;SDS011;5433;50.862;4.320;2022-09-09T04:05:35;8.50;;;2.42;;
10761;SDS011;5433;50.862;4.320;2022-09-09T04:08:06;8.00;;;2.20;;
10761;SDS011;5433;50.862;4.320;2022-09-09T04:10:32;8.38;;;2.83;;
10761;SDS011;5433;50.862;4.320;2022-09-09T04:12:58;9.40;;;2.50;;
10761;SDS011;5433;50.862;4.320;2022-09-09T04:15:24;8.05;;;2.33;;
10761;SDS011;5433;50.862;4.320;2022-09-09T04:17:50;6.32;;;2.30;;
10761;SDS011;5433;50.862;4.320;2022-09-09T04:20:16;9.00;;;2.38;;
10761;SDS011;5433;50.862;4.320;2022-09-09T04:22:42;6.30;;;2.20;;
10761;SDS011;5433;50.862;4.320;2022-09-09T04:25:10;7.10;;;2.50;;
10761;SDS011;5433;50.862;4.320;2022-09-09T04:27:36;7.55;;;2.10;;
10761;SDS011;5433;50.862;4.320;2022-09-09T04:30:02;7.70;;;2.22;;
10761;SDS011;5433;50.862;4.320;2022-09-09T04:32:29;10.27;;;2.72;;
10761;SDS011;5433;50.862;4.320;2022-09-09T04:34:55;7.53;;;2.28;;
10761;SDS011;5433;50.862;4.320;2022-09-09T04:37:22;8.55;;;2.60;;
10761;SDS011;5433;50.862;4.320;2022-09-09T04:39:49;6.90;;;2.47;;
10761;SDS011;5433;50.862;4.320;2022-09-09T04:42:17;7.07;;;2.70;;
10761;SDS011;5433;50.862;4.320;2022-09-09T04:44:44;8.32;;;2.78;;
10761;SDS011;5433;50.862;4.320;2022-09-09T04:47:10;8.05;;;2.42;;
10761;SDS011;5433;50.862;4.320;2022-09-09T04:49:36;8.85;;;2.60;;
10761;SDS011;5433;50.862;4.320;2022-09-09T04:52:02;9.30;;;3.00;;
10761;SDS011;5433;50.862;4.320;2022-09-09T04:54:29;10.30;;;2.80;;
10761;SDS011;5433;50.862;4.320;2022-09-09T04:56:55;9.70;;;2.47;;
10761;SDS011;5433;50.862;4.320;2022-09-09T04:59:21;9.10;;;2.95;;
10761;SDS011;5433;50.862;4.320;2022-09-09T05:01:50;7.03;;;2.90;;
10761;SDS011;5433;50.862;4.320;2022-09-09T05:04:16;9.93;;;2.90;;
10761;SDS011;5433;50.862;4.320;2022-09-09T05:06:42;10.30;;;3.10;;
10761;SDS011;5433;50.862;4.320;2022-09-09T05:09:08;7.43;;;2.35;;
10761;SDS011;5433;50.862;4.320;2022-09-09T05:11:34;7.63;;;2.80;;
10761;SDS011;5433;50.862;4.320;2022-09-09T05:14:04;10.75;;;3.05;;
10761;SDS011;5433;50.862;4.320;2022-09-09T05:16:30;9.20;;;3.00;;
10761;SDS011;5433;50.862;4.320;2022-09-09T05:18:56;6.55;;;2.50;;
10761;SDS011;5433;50.862;4.320;2022-09-09T05:21:23;8.50;;;2.60;;
10761;SDS011;5433;50.862;4.320;2022-09-09T05:23:50;11.15;;;2.88;;
10761;SDS011;5433;50.862;4.320;2022-09-09T05:26:18;11.15;;;3.03;;
10761;SDS011;5433;50.862;4.320;2022-09-09T05:28:44;8.65;;;2.83;;
10761;SDS011;5433;50.862;4.320;2022-09-09T05:31:11;9.55;;;2.75;;
10761;SDS011;5433;50.862;4.320;2022-09-09T05:33:38;9.57;;;2.90;;
10761;SDS011;5433;50.862;4.320;2022-09-09T05:36:15;9.75;;;2.70;;
10761;SDS011;5433;50.862;4.320;2022-09-09T05:38:42;9.10;;;3.03;;
10761;SDS011;5433;50.862;4.320;2022-09-09T05:41:08;9.02;;;2.80;;
10761;SDS011;5433;50.862;4.320;2022-09-09T05:43:36;10.10;;;2.78;;
10761;SDS011;5433;50.862;4.320;2022-09-09T05:48:29;10.02;;;3.10;;
10761;SDS011;5433;50.862;4.320;2022-09-09T05:50:55;8.85;;;2.85;;
10761;SDS011;5433;50.862;4.320;2022-09-09T05:53:21;6.78;;;2.30;;
10761;SDS011;5433;50.862;4.320;2022-09-09T05:55:47;11.15;;;3.25;;
10761;SDS011;5433;50.862;4.320;2022-09-09T05:58:14;7.05;;;2.70;;
10761;SDS011;5433;50.862;4.320;2022-09-09T06:00:42;8.13;;;2.53;;
10761;SDS011;5433;50.862;4.320;2022-09-09T06:03:11;6.80;;;2.60;;
10761;SDS011;5433;50.862;4.320;2022-09-09T06:05:37;8.30;;;2.80;;
10761;SDS011;5433;50.862;4.320;2022-09-09T06:08:03;10.88;;;2.78;;
10761;SDS011;5433;50.862;4.320;2022-09-09T06:10:29;9.30;;;2.75;;
10761;SDS011;5433;50.862;4.320;2022-09-09T06:12:55;10.88;;;2.70;;
10761;SDS011;5433;50.862;4.320;2022-09-09T06:15:21;10.35;;;2.72;;
10761;SDS011;5433;50.862;4.320;2022-09-09T06:17:47;8.77;;;2.63;;
10761;SDS011;5433;50.862;4.320;2022-09-09T06:20:19;8.23;;;2.40;;
10761;SDS011;5433;50.862;4.320;2022-09-09T06:22:46;8.63;;;2.28;;
10761;SDS011;5433;50.862;4.320;2022-09-09T06:25:13;10.45;;;2.75;;
10761;SDS011;5433;50.862;4.320;2022-09-09T06:27:39;7.40;;;2.13;;
10761;SDS011;5433;50.862;4.320;2022-09-09T06:30:07;10.35;;;2.35;;
10761;SDS011;5433;50.862;4.320;2022-09-09T06:32:33;10.23;;;2.42;;
10761;SDS011;5433;50.862;4.320;2022-09-09T06:35:00;8.73;;;2.33;;
10761;SDS011;5433;50.862;4.320;2022-09-09T06:37:26;7.32;;;2.15;;
10761;SDS011;5433;50.862;4.320;2022-09-09T06:39:52;7.00;;;2.42;;
10761;SDS011;5433;50.862;4.320;2022-09-09T06:42:19;7.20;;;2.17;;
10761;SDS011;5433;50.862;4.320;2022-09-09T06:44:45;9.50;;;2.20;;
10761;SDS011;5433;50.862;4.320;2022-09-09T06:47:12;10.20;;;2.92;;
10761;SDS011;5433;50.862;4.320;2022-09-09T06:49:38;7.90;;;2.53;;
10761;SDS011;5433;50.862;4.320;2022-09-09T06:52:04;9.00;;;2.28;;
10761;SDS011;5433;50.862;4.320;2022-09-09T06:54:30;11.27;;;2.60;;
10761;SDS011;5433;50.862;4.320;2022-09-09T06:56:56;11.27;;;2.58;;
10761;SDS011;5433;50.862;4.320;2022-09-09T06:59:22;7.53;;;2.33;;
10761;SDS011;5433;50.862;4.320;2022-09-09T07:01:48;9.32;;;2.63;;
10761;SDS011;5433;50.862;4.320;2022-09-09T07:04:16;7.90;;;2.65;;
10761;SDS011;5433;50.862;4.320;2022-09-09T07:06:43;9.27;;;2.30;;
10761;SDS011;5433;50.862;4.320;2022-09-09T07:09:10;8.55;;;2.42;;
10761;SDS011;5433;50.862;4.320;2022-09-09T07:11:38;8.57;;;2.10;;
10761;SDS011;5433;50.862;4.320;2022-09-09T07:14:04;6.85;;;2.38;;
10761;SDS011;5433;50.862;4.320;2022-09-09T07:16:30;9.15;;;2.42;;
10761;SDS011;5433;50.862;4.320;2022-09-09T07:18:58;9.35;;;2.03;;
10761;SDS011;5433;50.862;4.320;2022-09-09T07:21:25;6.35;;;1.75;;
10761;SDS011;5433;50.862;4.320;2022-09-09T07:23:52;8.93;;;2.20;;
10761;SDS011;5433;50.862;4.320;2022-09-09T07:26:19;9.60;;;2.30;;
10761;SDS011;5433;50.862;4.320;2022-09-09T07:28:45;9.65;;;2.20;;
10761;SDS011;5433;50.862;4.320;2022-09-09T07:31:21;6.50;;;1.95;;
10761;SDS011;5433;50.862;4.320;2022-09-09T07:33:48;9.02;;;2.30;;
10761;SDS011;5433;50.862;4.320;2022-09-09T07:36:22;10.45;;;2.60;;
10761;SDS011;5433;50.862;4.320;2022-09-09T07:38:49;7.95;;;2.40;;
10761;SDS011;5433;50.862;4.320;2022-09-09T07:41:26;7.13;;;2.20;;
10761;SDS011;5433;50.862;4.320;2022-09-09T07:43:53;6.18;;;2.22;;
10761;SDS011;5433;50.862;4.320;2022-09-09T07:46:19;8.48;;;2.38;;
10761;SDS011;5433;50.862;4.320;2022-09-09T07:48:46;10.02;;;2.30;;
10761;SDS011;5433;50.862;4.320;2022-09-09T07:51:16;8.80;;;2.50;;
10761;SDS011;5433;50.862;4.320;2022-09-09T07:53:43;5.13;;;2.38;;
10761;SDS011;5433;50.862;4.320;2022-09-09T07:56:11;6.90;;;2.28;;
10761;SDS011;5433;50.862;4.320;2022-09-09T07:58:38;6.80;;;2.38;;
10761;SDS011;5433;50.862;4.320;2022-09-09T08:01:13;6.10;;;2.33;;
10761;SDS011;5433;50.862;4.320;2022-09-09T08:03:39;8.60;;;2.67;;
10761;SDS011;5433;50.862;4.320;2022-09-09T08:06:06;5.43;;;2.00;;
10761;SDS011;5433;50.862;4.320;2022-09-09T08:08:33;5.95;;;2.08;;
10761;SDS011;5433;50.862;4.320;2022-09-09T08:11:09;7.28;;;2.10;;
10761;SDS011;5433;50.862;4.320;2022-09-09T08:13:36;7.82;;;2.15;;
10761;SDS011;5433;50.862;4.320;2022-09-09T08:16:03;6.97;;;2.10;;
10761;SDS011;5433;50.862;4.320;2022-09-09T08:18:29;7.25;;;2.20;;
10761;SDS011;5433;50.862;4.320;2022-09-09T08:20:55;7.00;;;2.25;;
10761;SDS011;5433;50.862;4.320;2022-09-09T08:23:21;9.25;;;2.50;;
10761;SDS011;5433;50.862;4.320;2022-09-09T08:25:47;7.55;;;2.65;;
10761;SDS011;5433;50.862;4.320;2022-09-09T08:28:15;6.20;;;2.20;;
10761;SDS011;5433;50.862;4.320;2022-09-09T08:30:41;9.02;;;2.40;;
10761;SDS011;5433;50.862;4.320;2022-09-09T08:33:08;9.07;;;2.30;;
10761;SDS011;5433;50.862;4.320;2022-09-09T08:35:34;7.95;;;2.30;;
10761;SDS011;5433;50.862;4.320;2022-09-09T08:38:04;6.18;;;2.10;;
10761;SDS011;5433;50.862;4.320;2022-09-09T08:40:31;6.65;;;2.17;;
10761;SDS011;5433;50.862;4.320;2022-09-09T08:42:58;7.35;;;2.30;;
10761;SDS011;5433;50.862;4.320;2022-09-09T08:45:35;7.43;;;2.60;;
10761;SDS011;5433;50.862;4.320;2022-09-09T08:50:36;7.85;;;2.60;;
10761;SDS011;5433;50.862;4.320;2022-09-09T08:53:04;10.10;;;2.90;;
10761;SDS011;5433;50.862;4.320;2022-09-09T08:58:09;6.82;;;2.60;;
10761;SDS011;5433;50.862;4.320;2022-09-09T09:03:23;9.43;;;2.80;;
10761;SDS011;5433;50.862;4.320;2022-09-09T09:10:53;6.50;;;2.55;;
10761;SDS011;5433;50.862;4.320;2022-09-09T09:14:05;6.40;;;2.53;;
10761;SDS011;5433;50.862;4.320;2022-09-09T09:16:25;7.95;;;2.40;;
10761;SDS011;5433;50.862;4.320;2022-09-09T09:18:52;6.47;;;2.30;;
10761;SDS011;5433;50.862;4.320;2022-09-09T09:23:56;8.57;;;3.47;;
10761;SDS011;5433;50.862;4.320;2022-09-09T09:26:29;8.00;;;2.40;;
10761;SDS011;5433;50.862;4.320;2022-09-09T09:28:56;7.05;;;2.40;;
10761;SDS011;5433;50.862;4.320;2022-09-09T09:31:24;9.60;;;2.58;;
10761;SDS011;5433;50.862;4.320;2022-09-09T09:33:55;6.47;;;2.70;;
10761;SDS011;5433;50.862;4.320;2022-09-09T09:36:42;7.25;;;2.63;;
10761;SDS011;5433;50.862;4.320;2022-09-09T09:41:56;8.45;;;2.72;;
10761;SDS011;5433;50.862;4.320;2022-09-09T09:44:30;8.13;;;2.60;;
10761;SDS011;5433;50.862;4.320;2022-09-09T09:47:10;8.10;;;2.72;;
10761;SDS011;5433;50.862;4.320;2022-09-09T09:49:38;7.43;;;2.70;;
10761;SDS011;5433;50.862;4.320;2022-09-09T09:52:04;7.78;;;2.40;;
10761;SDS011;5433;50.862;4.320;2022-09-09T09:54:32;6.53;;;2.85;;
10761;SDS011;5433;50.862;4.320;2022-09-09T09:57:09;9.13;;;2.60;;
10761;SDS011;5433;50.862;4.320;2022-09-09T09:59:36;7.80;;;2.38;;
10761;SDS011;5433;50.862;4.320;2022-09-09T10:04:36;7.78;;;2.38;;
10761;SDS011;5433;50.862;4.320;2022-09-09T10:07:10;6.95;;;2.45;;
10761;SDS011;5433;50.862;4.320;2022-09-09T10:09:36;8.05;;;2.22;;
10761;SDS011;5433;50.862;4.320;2022-09-09T10:12:08;5.80;;;2.05;;
10761;SDS011;5433;50.862;4.320;2022-09-09T10:17:29;6.68;;;2.00;;
10761;SDS011;5433;50.862;4.320;2022-09-09T10:22:28;5.28;;;1.92;;
10761;SDS011;5433;50.862;4.320;2022-09-09T10:25:13;5.07;;;1.90;;
10761;SDS011;5433;50.862;4.320;2022-09-09T10:32:46;4.45;;;1.73;;
10761;SDS011;5433;50.862;4.320;2022-09-09T10:35:40;6.80;;;2.08;;
10761;SDS011;5433;50.862;4.320;2022-09-09T10:38:12;5.60;;;2.00;;
10761;SDS011;5433;50.862;4.320;2022-09-09T10:46:06;7.35;;;2.20;;
10761;SDS011;5433;50.862;4.320;2022-09-09T10:51:23;5.70;;;2.15;;
10761;SDS011;5433;50.862;4.320;2022-09-09T10:56:49;7.60;;;2.28;;
10761;SDS011;5433;50.862;4.320;2022-09-09T10:59:20;5.70;;;2.03;;
10761;SDS011;5433;50.862;4.320;2022-09-09T11:04:33;6.78;;;2.33;;
10761;SDS011;5433;50.862;4.320;2022-09-09T11:07:02;8.07;;;2.17;;
10761;SDS011;5433;50.862;4.320;2022-09-09T11:09:33;4.53;;;1.83;;
10761;SDS011;5433;50.862;4.320;2022-09-09T11:12:02;6.47;;;2.00;;
10761;SDS011;5433;50.862;4.320;2022-09-09T11:14:29;4.70;;;1.80;;
10761;SDS011;5433;50.862;4.320;2022-09-09T11:17:12;5.03;;;1.60;;
10761;SDS011;5433;50.862;4.320;2022-09-09T11:19:40;4.35;;;1.73;;
10761;SDS011;5433;50.862;4.320;2022-09-09T11:22:08;4.32;;;1.63;;
10761;SDS011;5433;50.862;4.320;2022-09-09T11:24:40;5.75;;;2.05;;
10761;SDS011;5433;50.862;4.320;2022-09-09T11:27:13;5.97;;;1.60;;
10761;SDS011;5433;50.862;4.320;2022-09-09T11:29:47;4.95;;;1.80;;
10761;SDS011;5433;50.862;4.320;2022-09-09T11:32:25;5.10;;;1.70;;
10761;SDS011;5433;50.862;4.320;2022-09-09T11:42:47;3.53;;;1.52;;
10761;SDS011;5433;50.862;4.320;2022-09-09T11:45:23;5.25;;;1.67;;
10761;SDS011;5433;50.862;4.320;2022-09-09T11:47:51;5.03;;;1.90;;
10761;SDS011;5433;50.862;4.320;2022-09-09T11:52:45;8.73;;;2.05;;
10761;SDS011;5433;50.862;4.320;2022-09-09T11:55:25;5.75;;;1.80;;
10761;SDS011;5433;50.862;4.320;2022-09-09T12:00:42;4.30;;;1.80;;
10761;SDS011;5433;50.862;4.320;2022-09-09T12:05:56;6.03;;;2.20;;
10761;SDS011;5433;50.862;4.320;2022-09-09T12:08:26;4.95;;;1.92;;
10761;SDS011;5433;50.862;4.320;2022-09-09T12:10:54;6.45;;;1.75;;
10761;SDS011;5433;50.862;4.320;2022-09-09T12:13:21;4.38;;;1.58;;
10761;SDS011;5433;50.862;4.320;2022-09-09T12:15:52;5.05;;;1.70;;
10761;SDS011;5433;50.862;4.320;2022-09-09T12:20:53;4.35;;;1.80;;
10761;SDS011;5433;50.862;4.320;2022-09-09T12:26:05;7.07;;;2.10;;
10761;SDS011;5433;50.862;4.320;2022-09-09T12:31:07;3.65;;;1.63;;
10761;SDS011;5433;50.862;4.320;2022-09-09T12:33:35;5.63;;;1.75;;
10761;SDS011;5433;50.862;4.320;2022-09-09T12:36:02;4.63;;;1.70;;
10761;SDS011;5433;50.862;4.320;2022-09-09T12:38:32;4.32;;;1.75;;
10761;SDS011;5433;50.862;4.320;2022-09-09T12:40:58;4.60;;;1.63;;
10761;SDS011;5433;50.862;4.320;2022-09-09T12:43:25;4.32;;;1.42;;
10761;SDS011;5433;50.862;4.320;2022-09-09T12:45:53;5.25;;;1.48;;
10761;SDS011;5433;50.862;4.320;2022-09-09T12:48:24;2.88;;;1.20;;
10761;SDS011;5433;50.862;4.320;2022-09-09T12:50:52;3.33;;;1.50;;
10761;SDS011;5433;50.862;4.320;2022-09-09T12:53:22;5.40;;;1.67;;
10761;SDS011;5433;50.862;4.320;2022-09-09T12:55:52;5.30;;;1.58;;
10761;SDS011;5433;50.862;4.320;2022-09-09T12:58:20;4.18;;;1.35;;
10761;SDS011;5433;50.862;4.320;2022-09-09T13:00:53;2.65;;;1.33;;
10761;SDS011;5433;50.862;4.320;2022-09-09T13:03:21;3.47;;;1.30;;
10761;SDS011;5433;50.862;4.320;2022-09-09T13:05:48;3.65;;;1.30;;
10761;SDS011;5433;50.862;4.320;2022-09-09T13:08:16;4.38;;;1.45;;
10761;SDS011;5433;50.862;4.320;2022-09-09T13:13:40;3.20;;;1.42;;
10761;SDS011;5433;50.862;4.320;2022-09-09T13:16:15;3.78;;;1.73;;
10761;SDS011;5433;50.862;4.320;2022-09-09T13:18:43;4.00;;;1.30;;
10761;SDS011;5433;50.862;4.320;2022-09-09T13:21:12;5.10;;;1.42;;
10761;SDS011;5433;50.862;4.320;2022-09-09T13:23:39;4.75;;;1.50;;
10761;SDS011;5433;50.862;4.320;2022-09-09T13:26:07;3.92;;;1.65;;
10761;SDS011;5433;50.862;4.320;2022-09-09T13:28:45;4.63;;;1.50;;
10761;SDS011;5433;50.862;4.320;2022-09-09T13:34:13;3.38;;;1.35;;
10761;SDS011;5433;50.862;4.320;2022-09-09T13:36:40;3.08;;;1.20;;
10761;SDS011;5433;50.862;4.320;2022-09-09T13:39:13;3.20;;;1.50;;
10761;SDS011;5433;50.862;4.320;2022-09-09T13:41:43;2.40;;;1.25;;
10761;SDS011;5433;50.862;4.320;2022-09-09T13:44:20;2.55;;;1.33;;
10761;SDS011;5433;50.862;4.320;2022-09-09T13:46:58;3.95;;;1.30;;
10761;SDS011;5433;50.862;4.320;2022-09-09T13:49:25;2.92;;;1.40;;
10761;SDS011;5433;50.862;4.320;2022-09-09T13:52:02;3.33;;;1.27;;
10761;SDS011;5433;50.862;4.320;2022-09-09T13:54:29;4.07;;;1.27;;
10761;SDS011;5433;50.862;4.320;2022-09-09T13:56:55;3.88;;;1.27;;
10761;SDS011;5433;50.862;4.320;2022-09-09T13:59:22;2.78;;;1.30;;
10761;SDS011;5433;50.862;4.320;2022-09-09T14:04:52;2.50;;;1.50;;
10761;SDS011;5433;50.862;4.320;2022-09-09T14:07:20;2.00;;;1.13;;
10761;SDS011;5433;50.862;4.320;2022-09-09T14:09:46;2.88;;;1.30;;
10761;SDS011;5433;50.862;4.320;2022-09-09T14:12:16;4.25;;;1.20;;
10761;SDS011;5433;50.862;4.320;2022-09-09T14:14:43;4.30;;;1.40;;
10761;SDS011;5433;50.862;4.320;2022-09-09T14:17:09;3.58;;;1.45;;
10761;SDS011;5433;50.862;4.320;2022-09-09T14:19:35;3.63;;;1.60;;
10761;SDS011;5433;50.862;4.320;2022-09-09T14:22:04;4.45;;;1.50;;
10761;SDS011;5433;50.862;4.320;2022-09-09T14:24:30;3.90;;;1.90;;
10761;SDS011;5433;50.862;4.320;2022-09-09T14:26:56;3.42;;;1.48;;
10761;SDS011;5433;50.862;4.320;2022-09-09T14:29:22;4.97;;;1.80;;
10761;SDS011;5433;50.862;4.320;2022-09-09T14:31:49;3.47;;;1.77;;
10761;SDS011;5433;50.862;4.320;2022-09-09T14:34:15;4.88;;;1.80;;
10761;SDS011;5433;50.862;4.320;2022-09-09T14:36:42;2.75;;;1.42;;
10761;SDS011;5433;50.862;4.320;2022-09-09T14:39:09;3.95;;;1.55;;
10761;SDS011;5433;50.862;4.320;2022-09-09T14:41:35;4.85;;;1.73;;
10761;SDS011;5433;50.862;4.320;2022-09-09T14:44:01;3.85;;;1.50;;
10761;SDS011;5433;50.862;4.320;2022-09-09T14:46:27;3.90;;;1.60;;
10761;SDS011;5433;50.862;4.320;2022-09-09T14:48:53;3.55;;;1.60;;
10761;SDS011;5433;50.862;4.320;2022-09-09T14:51:20;4.57;;;1.70;;
10761;SDS011;5433;50.862;4.320;2022-09-09T14:53:52;2.30;;;1.40;;
10761;SDS011;5433;50.862;4.320;2022-09-09T14:56:19;4.10;;;1.40;;
10761;SDS011;5433;50.862;4.320;2022-09-09T14:58:47;2.42;;;1.45;;
10761;SDS011;5433;50.862;4.320;2022-09-09T15:01:14;4.93;;;1.60;;
10761;SDS011;5433;50.862;4.320;2022-09-09T15:03:41;2.78;;;1.20;;
10761;SDS011;5433;50.862;4.320;2022-09-09T15:06:12;3.63;;;1.40;;
10761;SDS011;5433;50.862;4.320;2022-09-09T15:08:39;4.30;;;1.83;;
10761;SDS011;5433;50.862;4.320;2022-09-09T15:11:06;2.15;;;1.25;;
10761;SDS011;5433;50.862;4.320;2022-09-09T15:13:32;4.57;;;1.67;;
10761;SDS011;5433;50.862;4.320;2022-09-09T15:16:05;2.67;;;1.50;;
10761;SDS011;5433;50.862;4.320;2022-09-09T15:18:32;4.95;;;1.55;;
10761;SDS011;5433;50.862;4.320;2022-09-09T15:21:07;4.82;;;1.60;;
10761;SDS011;5433;50.862;4.320;2022-09-09T15:23:33;2.60;;;1.20;;
10761;SDS011;5433;50.862;4.320;2022-09-09T15:26:00;3.20;;;1.55;;
10761;SDS011;5433;50.862;4.320;2022-09-09T15:28:26;6.40;;;1.63;;
10761;SDS011;5433;50.862;4.320;2022-09-09T15:30:52;3.50;;;1.60;;
10761;SDS011;5433;50.862;4.320;2022-09-09T15:33:19;4.18;;;1.70;;
10761;SDS011;5433;50.862;4.320;2022-09-09T15:35:45;4.47;;;1.50;;
10761;SDS011;5433;50.862;4.320;2022-09-09T15:38:11;4.03;;;1.58;;
10761;SDS011;5433;50.862;4.320;2022-09-09T15:40:38;3.05;;;1.45;;
10761;SDS011;5433;50.862;4.320;2022-09-09T15:43:05;2.70;;;1.60;;
10761;SDS011;5433;50.862;4.320;2022-09-09T15:45:31;3.58;;;1.52;;
10761;SDS011;5433;50.862;4.320;2022-09-09T15:47:58;2.00;;;1.35;;
10761;SDS011;5433;50.862;4.320;2022-09-09T15:50:24;3.20;;;1.50;;
10761;SDS011;5433;50.862;4.320;2022-09-09T15:52:51;4.68;;;1.65;;
10761;SDS011;5433;50.862;4.320;2022-09-09T15:55:17;2.55;;;1.45;;
10761;SDS011;5433;50.862;4.320;2022-09-09T15:57:45;5.25;;;1.77;;
10761;SDS011;5433;50.862;4.320;2022-09-09T16:00:11;5.55;;;1.55;;
10761;SDS011;5433;50.862;4.320;2022-09-09T16:02:38;3.78;;;1.65;;
10761;SDS011;5433;50.862;4.320;2022-09-09T16:05:05;4.15;;;1.35;;
10761;SDS011;5433;50.862;4.320;2022-09-09T16:07:31;2.90;;;1.30;;
10761;SDS011;5433;50.862;4.320;2022-09-09T16:09:57;2.80;;;1.52;;
10761;SDS011;5433;50.862;4.320;2022-09-09T16:12:23;5.82;;;1.83;;
10761;SDS011;5433;50.862;4.320;2022-09-09T16:14:49;3.63;;;1.73;;
10761;SDS011;5433;50.862;4.320;2022-09-09T16:17:15;4.50;;;1.88;;
10761;SDS011;5433;50.862;4.320;2022-09-09T16:19:41;2.78;;;1.45;;
10761;SDS011;5433;50.862;4.320;2022-09-09T16:22:09;3.28;;;1.35;;
10761;SDS011;5433;50.862;4.320;2022-09-09T16:24:36;2.33;;;1.20;;
10761;SDS011;5433;50.862;4.320;2022-09-09T16:27:02;3.53;;;1.70;;
10761;SDS011;5433;50.862;4.320;2022-09-09T16:29:28;4.75;;;1.55;;
10761;SDS011;5433;50.862;4.320;2022-09-09T16:31:54;5.88;;;1.80;;
10761;SDS011;5433;50.862;4.320;2022-09-09T16:34:20;2.65;;;1.60;;
10761;SDS011;5433;50.862;4.320;2022-09-09T16:36:47;3.05;;;1.70;;
10761;SDS011;5433;50.862;4.320;2022-09-09T16:39:15;2.20;;;1.50;;
10761;SDS011;5433;50.862;4.320;2022-09-09T16:41:41;4.07;;;1.50;;
10761;SDS011;5433;50.862;4.320;2022-09-09T16:44:09;2.80;;;1.63;;
10761;SDS011;5433;50.862;4.320;2022-09-09T16:46:37;3.10;;;1.50;;
10761;SDS011;5433;50.862;4.320;2022-09-09T16:49:07;2.35;;;1.50;;
10761;SDS011;5433;50.862;4.320;2022-09-09T16:51:41;1.67;;;1.30;;
10761;SDS011;5433;50.862;4.320;2022-09-09T16:54:07;2.40;;;1.65;;
10761;SDS011;5433;50.862;4.320;2022-09-09T16:56:35;1.88;;;1.48;;
10761;SDS011;5433;50.862;4.320;2022-09-09T16:59:07;3.35;;;1.85;;
10761;SDS011;5433;50.862;4.320;2022-09-09T17:01:34;4.65;;;1.70;;
10761;SDS011;5433;50.862;4.320;2022-09-09T17:04:04;4.30;;;1.70;;
10761;SDS011;5433;50.862;4.320;2022-09-09T17:06:31;3.20;;;1.60;;